createdAt,value
2018-02-08T00:01:28.285Z,-1.10
2018-02-08T00:03:55.770Z,-1.00
2018-02-08T00:06:24.044Z,-1.20
2018-02-08T00:08:51.530Z,-1.10
2018-02-08T00:11:19.014Z,-1.10
2018-02-08T00:13:46.510Z,-0.90
2018-02-08T00:16:13.977Z,-0.80
2018-02-08T00:18:42.234Z,-0.80
2018-02-08T00:21:09.713Z,-0.70
2018-02-08T00:23:37.975Z,-1.00
2018-02-08T00:26:05.461Z,-1.10
2018-02-08T00:28:32.938Z,-0.90
2018-02-08T00:31:00.455Z,-1.40
2018-02-08T00:33:27.946Z,-1.40
2018-02-08T00:35:55.438Z,-1.30
2018-02-08T00:38:22.941Z,-1.30
2018-02-08T00:40:51.184Z,-1.10
2018-02-08T00:43:18.663Z,-1.30
2018-02-08T00:45:46.153Z,-1.20
2018-02-08T00:48:13.659Z,-1.40
2018-02-08T00:50:41.917Z,-1.40
2018-02-08T00:53:09.394Z,-1.30
2018-02-08T00:55:36.886Z,-1.10
2018-02-08T00:58:05.126Z,-1.00
2018-02-08T01:00:32.623Z,-0.90
2018-02-08T01:03:00.937Z,-1.00
2018-02-08T01:05:28.406Z,-0.70
2018-02-08T01:07:55.878Z,-0.60
2018-02-08T01:10:24.919Z,-0.50
2018-02-08T01:12:53.203Z,-0.80
2018-02-08T01:15:20.723Z,-0.80
2018-02-08T01:17:48.202Z,-1.00
2018-02-08T01:20:16.454Z,-1.20
2018-02-08T01:22:43.943Z,-0.90
2018-02-08T01:25:12.209Z,-1.80
2018-02-08T01:27:40.458Z,-2.10
2018-02-08T01:30:07.951Z,-1.80
2018-02-08T01:32:36.202Z,-2.30
2018-02-08T01:35:03.702Z,-2.00
2018-02-08T01:37:31.201Z,-2.00
2018-02-08T01:39:58.697Z,-2.20
2018-02-08T01:42:26.935Z,-2.50
2018-02-08T01:44:54.419Z,-2.60
2018-02-08T01:47:22.108Z,-2.40
2018-02-08T01:49:50.357Z,-2.20
2018-02-08T01:52:17.842Z,-1.90
2018-02-08T01:54:45.348Z,-2.00
2018-02-08T01:57:12.834Z,-1.90
2018-02-08T01:59:40.347Z,-1.90
2018-02-08T02:02:07.814Z,-1.90
2018-02-08T02:04:36.563Z,-2.10
2018-02-08T02:07:04.810Z,-1.60
2018-02-08T02:09:32.314Z,-1.90
2018-02-08T02:11:59.801Z,-2.00
2018-02-08T02:14:27.295Z,-1.90
2018-02-08T02:16:54.778Z,-2.00
2018-02-08T02:19:22.272Z,-2.10
2018-02-08T02:21:49.746Z,-2.00
2018-02-08T02:24:17.240Z,-2.20
2018-02-08T02:26:45.487Z,-2.60
2018-02-08T02:29:12.967Z,-2.30
2018-02-08T02:31:41.230Z,-2.80
2018-02-08T02:34:08.720Z,-2.60
2018-02-08T02:36:36.955Z,-2.60
2018-02-08T02:39:04.458Z,-2.70
2018-02-08T02:41:32.703Z,-2.80
2018-02-08T02:44:00.204Z,-2.70
2018-02-08T02:46:27.699Z,-2.90
2018-02-08T02:48:55.183Z,-2.90
2018-02-08T02:51:22.674Z,-3.00
2018-02-08T02:53:50.162Z,-2.80
2018-02-08T02:56:17.642Z,-3.00
2018-02-08T02:58:45.122Z,-3.00
2018-02-08T03:01:13.379Z,-3.40
2018-02-08T03:03:40.858Z,-3.20
2018-02-08T03:06:09.116Z,-3.20
2018-02-08T03:08:36.603Z,-3.30
2018-02-08T03:11:04.872Z,-3.30
2018-02-08T03:13:33.119Z,-3.40
2018-02-08T03:16:00.618Z,-3.50
2018-02-08T03:18:28.869Z,-3.50
2018-02-08T03:20:56.350Z,-3.40
2018-02-08T03:23:23.838Z,-3.60
2018-02-08T03:25:51.330Z,-3.20
2018-02-08T03:28:18.812Z,-3.30
2018-02-08T03:30:47.499Z,-3.20
2018-02-08T03:33:14.983Z,-3.20
2018-02-08T03:35:42.482Z,-3.20
2018-02-08T03:38:10.735Z,-3.10
2018-02-08T03:40:38.236Z,-3.00
2018-02-08T03:43:05.791Z,-3.00
2018-02-08T03:45:33.287Z,-2.90
2018-02-08T03:48:00.767Z,-3.00
2018-02-08T03:50:28.274Z,-3.40
2018-02-08T03:52:55.754Z,-3.40
2018-02-08T03:55:24.010Z,-3.60
2018-02-08T03:57:51.505Z,-3.50
2018-02-08T04:00:18.999Z,-3.60
2018-02-08T04:02:46.484Z,-3.40
2018-02-08T04:05:13.979Z,-3.20
2018-02-08T04:07:41.475Z,-3.30
2018-02-08T04:10:08.968Z,-4.00
2018-02-08T04:12:37.234Z,-3.90
2018-02-08T04:15:04.752Z,-4.10
2018-02-08T04:17:32.228Z,-4.30
2018-02-08T04:19:59.715Z,-3.90
2018-02-08T04:22:27.201Z,-4.30
2018-02-08T04:24:54.694Z,-4.00
2018-02-08T04:27:22.180Z,-4.20
2018-02-08T04:29:49.681Z,-4.30
2018-02-08T04:32:17.157Z,-3.90
2018-02-08T04:34:44.642Z,-3.70
2018-02-08T04:37:12.119Z,-3.60
2018-02-08T04:39:52.256Z,-3.90
2018-02-08T04:42:28.524Z,-3.80
2018-02-08T04:45:07.988Z,-3.70
2018-02-08T04:47:57.739Z,-3.80
2018-02-08T04:50:25.252Z,-4.20
2018-02-08T04:52:52.735Z,-4.00
2018-02-08T04:55:21.012Z,-4.10
2018-02-08T04:57:48.495Z,-4.10
2018-02-08T05:00:15.987Z,-4.10
2018-02-08T05:02:44.246Z,-4.30
2018-02-08T05:05:11.723Z,-4.20
2018-02-08T05:07:39.227Z,-4.00
2018-02-08T05:10:06.714Z,-4.10
2018-02-08T05:12:34.211Z,-4.10
2018-02-08T05:15:01.699Z,-4.00
2018-02-08T05:17:29.202Z,-3.90
2018-02-08T05:19:57.461Z,-4.10
2018-02-08T05:22:24.944Z,-4.20
2018-02-08T05:24:53.197Z,-4.60
2018-02-08T05:27:20.696Z,-4.70
2018-02-08T05:29:48.938Z,-5.10
2018-02-08T05:32:16.423Z,-5.20
2018-02-08T05:34:43.911Z,-4.80
2018-02-08T05:37:11.411Z,-4.90
2018-02-08T05:39:38.911Z,-4.80
2018-02-08T05:42:06.402Z,-5.00
2018-02-08T05:44:34.687Z,-4.90
2018-02-08T05:47:02.178Z,-4.80
2018-02-08T05:49:30.431Z,-4.80
2018-02-08T05:51:57.964Z,-4.80
2018-02-08T05:54:25.419Z,-4.60
2018-02-08T05:56:52.930Z,-4.60
2018-02-08T05:59:21.230Z,-4.60
2018-02-08T06:01:48.728Z,-4.60
2018-02-08T06:04:16.211Z,-4.70
2018-02-08T06:06:43.714Z,-4.70
2018-02-08T06:09:11.184Z,-4.60
2018-02-08T06:11:38.679Z,-4.90
2018-02-08T06:14:06.147Z,-5.00
2018-02-08T06:16:34.411Z,-4.90
2018-02-08T06:19:01.902Z,-4.60
2018-02-08T06:21:30.158Z,-4.80
2018-02-08T06:23:57.929Z,-4.70
2018-02-08T06:26:26.191Z,-4.80
2018-02-08T06:28:53.671Z,-4.90
2018-02-08T06:31:21.924Z,-4.80
2018-02-08T06:33:49.409Z,-4.70
2018-02-08T06:36:17.648Z,-4.80
2018-02-08T06:38:45.150Z,-4.90
2018-02-08T06:41:12.625Z,-4.70
2018-02-08T06:43:40.121Z,-4.50
2018-02-08T06:46:07.604Z,-4.70
2018-02-08T06:48:35.867Z,-4.60
2018-02-08T06:51:03.349Z,-4.60
2018-02-08T06:53:31.614Z,-4.80
2018-02-08T06:55:59.090Z,-4.80
2018-02-08T06:58:26.601Z,-4.90
2018-02-08T07:00:54.186Z,-5.20
2018-02-08T07:03:22.454Z,-5.40
2018-02-08T07:05:49.931Z,-5.50
2018-02-08T07:08:18.204Z,-5.60
2018-02-08T07:10:45.679Z,-5.40
2018-02-08T07:13:13.179Z,-5.50
2018-02-08T07:15:40.662Z,-5.30
2018-02-08T07:18:08.165Z,-5.30
2018-02-08T07:20:35.639Z,-5.00
2018-02-08T07:23:03.119Z,-5.00
2018-02-08T07:25:30.608Z,-4.90
2018-02-08T07:27:58.859Z,-4.80
2018-02-08T07:30:26.341Z,-4.70
2018-02-08T07:32:54.599Z,-4.40
2018-02-08T07:35:22.084Z,-4.60
2018-02-08T07:37:50.362Z,-4.50
2018-02-08T07:40:18.611Z,-4.50
2018-02-08T07:42:46.113Z,-4.40
2018-02-08T07:45:13.601Z,-4.40
2018-02-08T07:47:41.075Z,-4.50
2018-02-08T07:50:08.572Z,-4.30
2018-02-08T07:52:36.823Z,-4.30
2018-02-08T07:55:04.297Z,-4.40
2018-02-08T07:57:32.650Z,-4.30
2018-02-08T08:00:00.136Z,-4.30
2018-02-08T08:02:28.444Z,-3.90
2018-02-08T08:04:55.939Z,-4.20
2018-02-08T08:07:23.419Z,-3.90
2018-02-08T08:09:51.671Z,-4.10
2018-02-08T08:12:19.154Z,-4.10
2018-02-08T08:14:47.416Z,-3.90
2018-02-08T08:17:14.924Z,-3.80
2018-02-08T08:19:42.403Z,-3.70
2018-02-08T08:22:09.916Z,-3.70
2018-02-08T08:24:38.155Z,-3.60
2018-02-08T08:27:05.657Z,-3.80
2018-02-08T08:29:33.908Z,-3.60
2018-02-08T08:32:01.399Z,-3.50
2018-02-08T08:34:28.887Z,-3.20
2018-02-08T08:36:56.359Z,-3.30
2018-02-08T08:39:23.852Z,-3.10
2018-02-08T08:41:52.103Z,-3.20
2018-02-08T08:44:19.595Z,-3.10
2018-02-08T08:46:47.846Z,-3.00
2018-02-08T08:49:15.355Z,-3.20
2018-02-08T08:51:42.835Z,-3.00
2018-02-08T08:54:10.332Z,-2.90
2018-02-08T08:56:38.607Z,-2.60
2018-02-08T08:59:06.087Z,-2.80
2018-02-08T09:01:33.656Z,-2.70
2018-02-08T09:04:01.156Z,-2.80
2018-02-08T09:06:54.699Z,-2.70
2018-02-08T09:09:23.056Z,-2.40
2018-02-08T09:11:50.566Z,-2.40
2018-02-08T09:14:18.104Z,-2.20
2018-02-08T09:16:45.577Z,-2.30
2018-02-08T09:19:13.079Z,-2.40
2018-02-08T09:21:41.341Z,-1.90
2018-02-08T09:24:08.837Z,-1.90
2018-02-08T09:26:36.330Z,-2.00
2018-02-08T09:29:03.827Z,-2.00
2018-02-08T09:31:32.084Z,-1.70
2018-02-08T09:33:59.590Z,-1.70
2018-02-08T09:36:27.120Z,-1.80
2018-02-08T09:38:54.596Z,-1.60
2018-02-08T09:41:22.080Z,-1.50
2018-02-08T09:43:49.576Z,-1.60
2018-02-08T09:46:17.063Z,-1.40
2018-02-08T09:48:45.322Z,-1.20
2018-02-08T09:51:12.795Z,-1.50
2018-02-08T09:53:41.065Z,-0.80
2018-02-08T09:56:09.318Z,-0.90
2018-02-08T09:58:36.806Z,-1.00
2018-02-08T10:01:05.072Z,-0.80
2018-02-08T10:03:32.563Z,-0.90
2018-02-08T10:06:00.059Z,-0.70
2018-02-08T10:08:27.570Z,-0.70
2018-02-08T10:10:55.809Z,-0.70
2018-02-08T10:13:23.296Z,-0.50
2018-02-08T10:15:51.549Z,-0.30
2018-02-08T10:18:19.917Z,-0.40
2018-02-08T10:20:47.399Z,-0.30
2018-02-08T10:23:15.668Z,0.30
2018-02-08T10:25:43.139Z,0.20
2018-02-08T10:28:11.400Z,0.20
2018-02-08T10:30:38.891Z,0.40
2018-02-08T10:33:06.414Z,0.60
2018-02-08T10:35:33.863Z,0.80
2018-02-08T10:38:01.363Z,1.10
2018-02-08T10:40:29.604Z,1.40
2018-02-08T10:42:57.157Z,1.10
2018-02-08T10:45:24.635Z,1.40
2018-02-08T10:47:52.119Z,1.60
2018-02-08T10:50:19.600Z,1.90
2018-02-08T10:52:47.106Z,2.00
2018-02-08T10:55:14.589Z,2.00
2018-02-08T10:57:42.070Z,1.90
2018-02-08T11:00:09.584Z,2.10
2018-02-08T11:02:37.063Z,2.20
2018-02-08T11:05:05.307Z,2.20
2018-02-08T11:07:32.792Z,2.40
2018-02-08T11:10:01.039Z,2.30
2018-02-08T11:12:28.511Z,2.20
2018-02-08T11:14:56.003Z,2.30
2018-02-08T11:17:24.313Z,2.40
2018-02-08T11:19:51.907Z,2.60
2018-02-08T11:22:20.171Z,2.40
2018-02-08T11:24:47.655Z,2.50
2018-02-08T11:27:15.895Z,2.20
2018-02-08T11:29:43.386Z,2.20
2018-02-08T11:32:11.632Z,2.10
2018-02-08T11:34:39.119Z,2.00
2018-02-08T11:37:06.595Z,2.30
2018-02-08T11:39:34.093Z,2.20
2018-02-08T11:42:01.586Z,2.00
2018-02-08T11:44:29.083Z,2.20
2018-02-08T11:46:56.563Z,2.00
2018-02-08T11:49:24.044Z,1.80
2018-02-08T11:51:51.541Z,2.00
2018-02-08T11:54:19.786Z,2.20
2018-02-08T11:56:47.265Z,2.40
2018-02-08T11:59:15.515Z,2.40
2018-02-08T12:01:42.978Z,2.10
2018-02-08T12:04:10.470Z,2.60
2018-02-08T12:06:38.710Z,2.20
2018-02-08T12:09:06.203Z,2.20
2018-02-08T12:11:33.693Z,1.90
2018-02-08T12:14:01.173Z,1.90
2018-02-08T12:16:28.638Z,2.20
2018-02-08T12:18:56.143Z,2.20
2018-02-08T12:21:23.636Z,2.20
2018-02-08T12:23:51.112Z,1.50
2018-02-08T12:26:18.591Z,1.60
2018-02-08T12:28:46.106Z,1.90
2018-02-08T12:31:13.647Z,1.50
2018-02-08T12:33:41.097Z,1.80
2018-02-08T12:36:08.598Z,1.60
2018-02-08T12:38:36.070Z,1.40
2018-02-08T12:41:03.556Z,1.20
2018-02-08T12:43:31.809Z,1.10
2018-02-08T12:45:59.284Z,1.40
2018-02-08T12:48:27.543Z,1.60
2018-02-08T12:50:55.018Z,1.50
2018-02-08T12:53:23.275Z,2.00
2018-02-08T12:55:50.756Z,1.60
2018-02-08T12:58:19.019Z,1.30
2018-02-08T13:00:46.511Z,1.50
2018-02-08T13:03:14.397Z,1.50
2018-02-08T13:05:41.870Z,2.00
2018-02-08T13:08:09.348Z,2.00
2018-02-08T13:10:37.661Z,2.00
2018-02-08T13:13:05.900Z,2.00
2018-02-08T13:15:33.397Z,2.20
2018-02-08T13:18:01.651Z,2.40
2018-02-08T13:20:29.142Z,2.30
2018-02-08T13:22:56.614Z,2.40
2018-02-08T13:25:24.110Z,2.50
2018-02-08T13:27:51.580Z,2.40
2018-02-08T13:30:19.059Z,2.50
2018-02-08T13:32:47.304Z,2.20
2018-02-08T13:35:14.792Z,2.10
2018-02-08T13:37:43.032Z,2.30
2018-02-08T13:43:12.899Z,2.20
2018-02-08T13:45:41.156Z,2.20
2018-02-08T13:48:26.346Z,2.10
2018-02-08T13:50:59.436Z,1.60
2018-02-08T13:53:32.696Z,1.70
2018-02-08T13:56:01.110Z,1.80
2018-02-08T14:01:31.875Z,1.90
2018-02-08T14:04:00.139Z,2.40
2018-02-08T14:06:27.619Z,2.00
2018-02-08T14:08:55.127Z,1.90
2018-02-08T14:11:22.623Z,1.50
2018-02-08T14:13:50.860Z,1.70
2018-02-08T14:16:18.392Z,1.50
2018-02-08T14:18:45.879Z,1.50
2018-02-08T14:21:13.366Z,1.70
2018-02-08T14:23:40.843Z,1.60
2018-02-08T14:26:09.092Z,1.50
2018-02-08T14:28:36.568Z,1.50
2018-02-08T14:31:04.880Z,1.70
2018-02-08T14:33:32.362Z,1.40
2018-02-08T14:35:59.845Z,1.50
2018-02-08T14:38:27.338Z,1.60
2018-02-08T14:40:55.579Z,1.90
2018-02-08T14:43:23.067Z,1.70
2018-02-08T14:45:51.326Z,2.00
2018-02-08T14:48:18.810Z,1.50
2018-02-08T14:50:46.294Z,1.70
2018-02-08T14:53:13.770Z,1.40
2018-02-08T14:55:41.259Z,1.70
2018-02-08T14:58:08.739Z,1.70
2018-02-08T15:00:36.981Z,1.70
2018-02-08T15:03:04.836Z,1.80
2018-02-08T15:05:32.316Z,1.90
2018-02-08T15:07:59.811Z,1.70
2018-02-08T15:10:27.304Z,1.50
2018-02-08T15:12:54.758Z,1.60
2018-02-08T15:15:22.244Z,1.90
2018-02-08T15:17:49.722Z,1.90
2018-02-08T15:20:17.976Z,2.20
2018-02-08T15:22:45.450Z,1.90
2018-02-08T15:25:13.709Z,2.10
2018-02-08T15:27:41.197Z,1.80
2018-02-08T15:30:09.440Z,1.80
2018-02-08T15:32:36.915Z,2.20
2018-02-08T15:35:04.395Z,1.80
2018-02-08T15:37:31.883Z,2.20
2018-02-08T15:39:59.343Z,1.90
2018-02-08T15:42:26.897Z,1.80
2018-02-08T15:44:54.366Z,2.00
2018-02-08T15:47:22.272Z,2.40
2018-02-08T15:49:49.735Z,1.90
2018-02-08T15:52:17.992Z,1.90
2018-02-08T15:54:46.065Z,1.90
2018-02-08T15:57:13.555Z,1.70
2018-02-08T15:59:41.798Z,1.60
2018-02-08T16:02:09.289Z,1.80
2018-02-08T16:04:37.530Z,1.80
2018-02-08T16:07:05.837Z,1.70
2018-02-08T16:09:35.304Z,1.70
2018-02-08T16:12:02.822Z,1.80
2018-02-08T16:14:30.304Z,1.50
2018-02-08T16:16:57.790Z,1.40
2018-02-08T16:19:25.308Z,1.50
2018-02-08T16:21:52.797Z,1.40
2018-02-08T16:24:20.276Z,1.50
2018-02-08T16:26:47.768Z,1.50
2018-02-08T16:29:15.996Z,1.50
2018-02-08T16:31:43.488Z,1.60
2018-02-08T16:34:11.727Z,1.50
2018-02-08T16:36:39.223Z,1.60
2018-02-08T16:39:07.466Z,1.50
2018-02-08T16:41:34.961Z,1.60
2018-02-08T16:44:03.195Z,1.40
2018-02-08T16:46:30.883Z,1.60
2018-02-08T16:48:58.397Z,1.50
2018-02-08T16:51:25.937Z,1.50
2018-02-08T16:53:53.370Z,1.50
2018-02-08T16:56:21.631Z,1.40
2018-02-08T16:58:49.123Z,1.30
2018-02-08T17:01:16.613Z,1.30
2018-02-08T17:03:44.088Z,1.30
2018-02-08T17:06:11.575Z,1.20
2018-02-08T17:08:39.851Z,1.20
2018-02-08T17:11:08.123Z,1.10
2018-02-08T17:13:35.605Z,1.20
2018-02-08T17:16:03.864Z,0.70
2018-02-08T17:18:32.110Z,0.90
2018-02-08T17:20:59.645Z,1.00
2018-02-08T17:23:27.114Z,0.80
2018-02-08T17:25:54.606Z,0.60
2018-02-08T17:28:22.074Z,0.80
2018-02-08T17:30:50.339Z,1.00
2018-02-08T17:33:17.815Z,0.90
2018-02-08T17:35:46.071Z,0.70
2018-02-08T17:38:13.556Z,0.60
2018-02-08T17:40:41.831Z,0.70
2018-02-08T17:43:10.082Z,0.70
2018-02-08T17:45:37.553Z,0.80
2018-02-08T17:48:05.809Z,0.70
2018-02-08T17:50:33.275Z,0.70
2018-02-08T17:53:00.818Z,0.70
2018-02-08T17:55:28.299Z,0.50
2018-02-08T17:57:55.787Z,0.30
2018-02-08T18:00:23.268Z,0.40
2018-02-08T18:02:50.801Z,0.50
2018-02-08T18:05:19.038Z,0.70
2018-02-08T18:07:46.515Z,0.30
2018-02-08T18:10:14.756Z,0.40
2018-02-08T18:12:42.233Z,0.70
2018-02-08T18:15:09.698Z,0.70
2018-02-08T18:17:37.183Z,0.70
2018-02-08T18:20:05.430Z,0.10
2018-02-08T18:22:32.928Z,0.50
2018-02-08T18:25:00.400Z,0.30
2018-02-08T18:27:27.891Z,-0.10
2018-02-08T18:29:56.130Z,-0.20
2018-02-08T18:32:23.712Z,0.00
2018-02-08T18:34:51.259Z,-0.50
2018-02-08T18:37:18.786Z,-0.40
2018-02-08T18:39:46.231Z,-0.40
2018-02-08T18:42:14.526Z,-0.40
2018-02-08T18:44:42.023Z,-0.60
2018-02-08T18:47:09.806Z,-0.40
2018-02-08T18:49:37.283Z,-0.50
2018-02-08T18:52:04.777Z,-0.80
2018-02-08T18:54:32.295Z,-0.50
2018-02-08T18:56:59.779Z,-0.60
2018-02-08T18:59:27.321Z,-0.70
2018-02-08T19:01:54.811Z,-0.80
2018-02-08T19:04:22.308Z,-0.70
2018-02-08T19:06:49.799Z,-0.70
2018-02-08T19:09:17.280Z,-1.00
2018-02-08T19:11:44.774Z,-1.00
2018-02-08T19:14:12.268Z,-0.80
2018-02-08T19:16:39.761Z,-1.00
2018-02-08T19:19:07.238Z,-0.70
2018-02-08T19:21:35.100Z,-0.80
2018-02-08T19:24:02.574Z,-0.70
2018-02-08T19:26:30.078Z,-0.70
2018-02-08T19:28:58.348Z,-0.50
2018-02-08T19:31:25.838Z,-0.70
2018-02-08T19:33:53.326Z,-1.00
2018-02-08T19:36:20.839Z,-1.20
2018-02-08T19:38:49.092Z,-1.00
2018-02-08T19:41:16.572Z,-1.10
2018-02-08T19:43:44.836Z,-1.10
2018-02-08T19:46:12.330Z,-1.10
2018-02-08T19:48:39.840Z,-1.10
2018-02-08T19:51:07.343Z,-1.40
2018-02-08T19:53:34.835Z,-1.60
2018-02-08T19:56:02.349Z,-1.60
2018-02-08T19:58:30.626Z,-1.60
2018-02-08T20:00:58.111Z,-1.70
2018-02-08T20:03:25.611Z,-1.90
2018-02-08T20:05:53.112Z,-1.80
2018-02-08T20:08:20.611Z,-2.30
2018-02-08T20:10:48.112Z,-2.40
2018-02-08T20:13:16.366Z,-2.50
2018-02-08T20:15:44.631Z,-2.40
2018-02-08T20:18:12.128Z,-2.40
2018-02-08T20:20:40.375Z,-2.70
2018-02-08T20:23:07.893Z,-2.40
2018-02-08T20:25:48.955Z,-2.60
2018-02-08T20:28:16.451Z,-2.60
2018-02-08T20:30:49.649Z,-2.40
2018-02-08T20:33:17.144Z,-2.40
2018-02-08T20:35:46.039Z,-2.60
2018-02-08T20:38:14.308Z,-2.20
2018-02-08T20:40:42.558Z,-2.50
2018-02-08T20:43:15.651Z,-2.40
2018-02-08T20:45:43.130Z,-2.40
2018-02-08T20:48:11.397Z,-2.20
2018-02-08T20:50:38.920Z,-2.40
2018-02-08T20:53:06.436Z,-2.40
2018-02-08T20:55:33.939Z,-2.50
2018-02-08T20:58:01.462Z,-2.80
2018-02-08T21:00:28.948Z,-2.80
2018-02-08T21:02:56.444Z,-3.00
2018-02-08T21:05:23.929Z,-3.20
2018-02-08T21:07:51.423Z,-3.00
2018-02-08T21:10:19.028Z,-3.20
2018-02-08T21:12:46.518Z,-3.10
2018-02-08T21:15:14.044Z,-3.00
2018-02-08T21:17:41.539Z,-3.30
2018-02-08T21:20:09.799Z,-3.70
2018-02-08T21:22:38.057Z,-4.10
2018-02-08T21:25:06.840Z,-3.90
2018-02-08T21:27:34.336Z,-4.10
2018-02-08T21:30:01.819Z,-3.70
2018-02-08T21:32:29.316Z,-3.60
2018-02-08T21:34:56.790Z,-3.70
2018-02-08T21:37:25.051Z,-3.40
2018-02-08T21:39:53.305Z,-3.50
2018-02-08T21:42:20.804Z,-3.50
2018-02-08T21:44:49.050Z,-3.70
2018-02-08T21:47:16.547Z,-3.50
2018-02-08T21:49:44.035Z,-3.70
2018-02-08T21:52:11.530Z,-3.50
2018-02-08T21:54:39.019Z,-3.50
2018-02-08T21:57:06.507Z,-4.00
2018-02-08T21:59:33.986Z,-3.90
2018-02-08T22:02:01.532Z,-3.70
2018-02-08T22:04:29.015Z,-3.90
2018-02-08T22:06:57.044Z,-4.30
2018-02-08T22:09:24.536Z,-4.30
2018-02-08T22:11:52.018Z,-4.00
2018-02-08T22:14:19.510Z,-4.00
2018-02-08T22:16:46.986Z,-4.10
2018-02-08T22:19:14.494Z,-4.50
2018-02-08T22:21:41.978Z,-4.50
2018-02-08T22:24:09.470Z,-4.50
2018-02-08T22:26:37.047Z,-4.70
2018-02-08T22:29:04.524Z,-4.60
2018-02-08T22:31:32.019Z,-4.50
2018-02-08T22:33:59.499Z,-4.20
2018-02-08T22:36:26.989Z,-4.60
2018-02-08T22:38:54.484Z,-4.60
2018-02-08T22:41:21.968Z,-4.40
2018-02-08T22:43:49.460Z,-4.30
2018-02-08T22:46:16.951Z,-4.40
2018-02-08T22:48:45.227Z,-4.20
2018-02-08T22:51:13.476Z,-4.30
2018-02-08T22:53:40.997Z,-4.40
2018-02-08T22:56:08.485Z,-4.20
2018-02-08T22:58:35.979Z,-4.40
2018-02-08T23:01:04.248Z,-4.20
2018-02-08T23:03:32.510Z,-4.30
2018-02-08T23:05:59.999Z,-4.60
2018-02-08T23:08:28.257Z,-4.40
2018-02-08T23:10:56.491Z,-4.60
2018-02-08T23:13:24.003Z,-4.60
2018-02-08T23:15:51.458Z,-4.60
2018-02-08T23:18:19.710Z,-4.90
2018-02-08T23:20:47.188Z,-4.80
2018-02-08T23:23:15.505Z,-4.80
2018-02-08T23:25:43.006Z,-4.70
2018-02-08T23:28:10.485Z,-4.80
2018-02-08T23:30:37.974Z,-5.30
2018-02-08T23:33:05.462Z,-5.10
2018-02-08T23:35:33.435Z,-5.10
2018-02-08T23:38:00.929Z,-4.90
2018-02-08T23:40:29.165Z,-5.20
2018-02-08T23:42:56.653Z,-5.30
2018-02-08T23:45:24.918Z,-4.90
2018-02-08T23:47:52.417Z,-5.20
2018-02-08T23:50:19.914Z,-5.30
2018-02-08T23:52:47.438Z,-5.00
2018-02-08T23:55:14.954Z,-5.00
2018-02-08T23:57:42.438Z,-4.90
